createdAt,value
2019-02-25T00:00:37.274Z,6.67
2019-02-25T00:05:40.799Z,6.63
2019-02-25T00:10:44.332Z,5.63
2019-02-25T00:15:47.864Z,6.37
2019-02-25T00:20:51.139Z,6.43
2019-02-25T00:25:54.422Z,5.87
2019-02-25T00:30:57.691Z,6.23
2019-02-25T00:36:00.971Z,5.97
2019-02-25T00:41:04.497Z,6.73
2019-02-25T00:46:07.786Z,6.40
2019-02-25T00:51:11.063Z,6.23
2019-02-25T00:56:14.341Z,6.10
2019-02-25T01:01:18.011Z,5.00
2019-02-25T01:06:21.298Z,5.57
2019-02-25T01:11:24.672Z,5.03
2019-02-25T01:16:28.204Z,5.10
2019-02-25T01:21:31.494Z,4.97
2019-02-25T01:26:35.015Z,5.33
2019-02-25T01:31:38.422Z,5.20
2019-02-25T01:36:41.699Z,4.63
2019-02-25T01:41:44.989Z,5.30
2019-02-25T01:46:48.527Z,5.23
2019-02-25T01:51:52.115Z,4.87
2019-02-25T01:56:55.395Z,5.13
2019-02-25T02:01:58.688Z,5.53
2019-02-25T02:07:02.225Z,5.33
2019-02-25T02:12:05.526Z,5.07
2019-02-25T02:17:08.798Z,5.13
2019-02-25T02:22:12.082Z,5.13
2019-02-25T02:27:15.358Z,5.50
2019-02-25T02:32:18.638Z,5.50
2019-02-25T02:37:22.159Z,5.10
2019-02-25T02:42:25.455Z,5.07
2019-02-25T02:47:34.555Z,4.97
2019-02-25T02:52:37.838Z,4.87
2019-02-25T02:57:41.392Z,4.47
2019-02-25T03:02:44.877Z,4.93
2019-02-25T03:07:48.149Z,4.80
2019-02-25T03:12:51.442Z,4.43
2019-02-25T03:17:54.725Z,4.23
2019-02-25T03:22:57.999Z,4.60
2019-02-25T03:28:01.529Z,4.67
2019-02-25T03:33:04.804Z,4.10
2019-02-25T03:38:08.078Z,4.53
2019-02-25T03:43:11.355Z,4.30
2019-02-25T03:48:14.631Z,5.30
2019-02-25T03:53:18.154Z,4.37
2019-02-25T03:58:21.679Z,4.23
2019-02-25T04:03:25.210Z,5.03
2019-02-25T04:08:28.474Z,4.47
2019-02-25T04:13:32.000Z,4.77
2019-02-25T04:18:35.536Z,4.50
2019-02-25T04:23:38.813Z,5.27
2019-02-25T04:28:42.328Z,4.27
2019-02-25T04:33:45.605Z,4.50
2019-02-25T04:38:48.882Z,4.17
2019-02-25T04:43:52.408Z,4.30
2019-02-25T04:48:55.678Z,4.00
2019-02-25T04:53:58.968Z,4.20
2019-02-25T04:59:02.236Z,4.50
2019-02-25T05:04:05.514Z,4.30
2019-02-25T05:09:09.032Z,4.50
2019-02-25T05:14:12.316Z,4.50
2019-02-25T05:19:15.615Z,4.77
2019-02-25T05:24:19.137Z,4.00
2019-02-25T05:29:22.663Z,4.30
2019-02-25T05:34:25.931Z,3.60
2019-02-25T05:39:29.462Z,4.00
2019-02-25T05:44:33.015Z,3.97
2019-02-25T05:49:36.295Z,3.87
2019-02-25T05:54:39.853Z,4.43
2019-02-25T05:59:43.115Z,4.20
2019-02-25T06:04:46.404Z,4.90
2019-02-25T06:09:49.922Z,4.03
2019-02-25T06:14:53.196Z,4.10
2019-02-25T06:19:56.474Z,4.33
2019-02-25T06:24:59.754Z,4.73
2019-02-25T06:30:04.970Z,4.53
2019-02-25T06:35:09.833Z,4.50
2019-02-25T06:40:16.551Z,4.37
2019-02-25T06:45:33.783Z,3.67
2019-02-25T06:50:37.302Z,4.20
2019-02-25T06:55:40.815Z,4.40
2019-02-25T07:00:44.424Z,4.17
2019-02-25T07:05:58.213Z,4.40
2019-02-25T07:11:09.120Z,4.80
2019-02-25T07:16:26.098Z,4.70
2019-02-25T07:21:31.017Z,5.90
2019-02-25T07:26:36.169Z,5.40
2019-02-25T07:31:57.460Z,5.33
2019-02-25T07:37:05.654Z,4.67
2019-02-25T07:42:22.556Z,5.20
2019-02-25T07:47:27.724Z,7.17
2019-02-25T07:52:35.332Z,12.07
2019-02-25T07:57:43.856Z,7.70
2019-02-25T08:03:01.259Z,11.27
2019-02-25T08:08:09.195Z,6.77
2019-02-25T08:13:14.134Z,5.90
2019-02-25T08:18:35.097Z,12.10
2019-02-25T08:23:43.058Z,6.73
2019-02-25T08:29:00.351Z,5.67
2019-02-25T08:34:22.130Z,4.77
2019-02-25T08:39:27.190Z,4.57
2019-02-25T08:44:32.174Z,4.00
2019-02-25T08:49:37.348Z,5.00
2019-02-25T08:54:40.874Z,4.17
2019-02-25T08:59:44.138Z,4.93
2019-02-25T09:04:49.230Z,4.33
2019-02-25T09:09:52.817Z,4.20
2019-02-25T09:14:56.083Z,4.60
2019-02-25T09:19:59.610Z,4.23
2019-02-25T09:25:03.152Z,6.60
2019-02-25T09:30:09.875Z,5.77
2019-02-25T09:35:13.230Z,6.13
2019-02-25T09:40:17.746Z,6.47
2019-02-25T09:45:21.362Z,6.60
2019-02-25T09:50:24.676Z,7.07
2019-02-25T09:55:27.970Z,6.87
2019-02-25T10:00:31.582Z,6.50
2019-02-25T10:05:35.124Z,6.07
2019-02-25T10:10:38.500Z,5.70
2019-02-25T10:15:42.051Z,4.43
2019-02-25T10:20:45.605Z,4.40
2019-02-25T10:25:48.890Z,2.33
2019-02-25T10:30:53.202Z,2.77
2019-02-25T10:35:56.870Z,2.20
2019-02-25T10:41:00.399Z,2.37
2019-02-25T10:46:03.696Z,2.83
2019-02-25T10:51:09.110Z,2.67
2019-02-25T10:56:23.837Z,1.97
2019-02-25T11:01:27.652Z,2.33
2019-02-25T11:06:35.124Z,4.33
2019-02-25T11:11:37.600Z,2.50
2019-02-25T11:16:41.929Z,2.07
2019-02-25T11:21:46.381Z,2.37
2019-02-25T11:26:51.113Z,2.57
2019-02-25T11:31:55.626Z,2.37
2019-02-25T11:36:59.539Z,4.77
2019-02-25T11:42:03.751Z,2.20
2019-02-25T11:47:08.045Z,2.23
2019-02-25T11:52:11.479Z,2.20
2019-02-25T11:57:15.006Z,2.47
2019-02-25T12:02:25.123Z,2.03
2019-02-25T12:07:23.559Z,2.60
2019-02-25T12:12:27.091Z,2.50
2019-02-25T12:17:30.386Z,2.30
2019-02-25T12:22:34.010Z,2.57
2019-02-25T12:27:37.300Z,2.23
2019-02-25T12:32:40.861Z,2.57
2019-02-25T12:37:44.215Z,2.60
2019-02-25T12:42:47.758Z,2.47
2019-02-25T12:47:51.030Z,2.73
2019-02-25T12:52:54.561Z,2.27
2019-02-25T12:57:58.101Z,2.50
2019-02-25T13:03:01.419Z,2.50
2019-02-25T13:08:04.687Z,2.40
2019-02-25T13:13:07.980Z,2.63
2019-02-25T13:18:11.497Z,2.83
2019-02-25T13:23:15.044Z,2.63
2019-02-25T13:28:18.576Z,2.73
2019-02-25T13:33:21.868Z,2.97
2019-02-25T13:38:25.150Z,3.53
2019-02-25T13:43:28.800Z,3.03
2019-02-25T13:48:32.339Z,2.60
2019-02-25T13:53:36.242Z,3.13
2019-02-25T13:58:39.539Z,3.50
2019-02-25T14:03:43.078Z,3.73
2019-02-25T14:08:46.787Z,3.00
2019-02-25T14:13:50.076Z,3.70
2019-02-25T14:18:53.609Z,3.67
2019-02-25T14:23:57.591Z,3.83
2019-02-25T14:29:02.142Z,3.73
2019-02-25T14:34:05.439Z,3.87
2019-02-25T14:39:17.783Z,3.83
2019-02-25T14:44:21.326Z,3.43
2019-02-25T14:49:24.623Z,3.90
2019-02-25T14:54:29.485Z,4.50
2019-02-25T14:59:32.910Z,4.13
2019-02-25T15:04:37.545Z,4.10
2019-02-25T15:09:43.091Z,3.60
2019-02-25T15:14:46.862Z,2.63
2019-02-25T15:19:52.398Z,2.53
2019-02-25T15:24:57.972Z,2.80
2019-02-25T15:30:02.595Z,3.30
2019-02-25T15:35:08.847Z,3.70
2019-02-25T15:40:18.002Z,3.70
2019-02-25T15:45:20.695Z,4.83
2019-02-25T15:50:24.294Z,5.57
2019-02-25T15:55:27.761Z,5.23
2019-02-25T16:00:33.988Z,5.33
2019-02-25T16:05:38.741Z,5.10
2019-02-25T16:10:42.234Z,4.73
2019-02-25T16:15:45.940Z,4.33
2019-02-25T16:20:49.484Z,4.33
2019-02-25T16:25:54.762Z,4.73
2019-02-25T16:30:58.145Z,4.77
2019-02-25T16:36:03.269Z,4.60
2019-02-25T16:41:08.478Z,5.03
2019-02-25T16:46:14.086Z,5.13
2019-02-25T16:51:17.648Z,5.07
2019-02-25T16:56:20.946Z,5.47
2019-02-25T17:01:26.178Z,5.00
2019-02-25T17:06:30.308Z,5.83
2019-02-25T17:11:35.230Z,5.57
2019-02-25T17:16:39.631Z,5.40
2019-02-25T17:21:43.671Z,4.90
2019-02-25T17:26:47.435Z,5.20
2019-02-25T17:31:50.723Z,5.47
2019-02-25T17:36:54.690Z,4.93
2019-02-25T17:41:59.345Z,5.17
2019-02-25T17:47:04.581Z,5.83
2019-02-25T17:52:08.066Z,6.07
2019-02-25T17:57:12.003Z,6.10
2019-02-25T18:02:16.631Z,6.63
2019-02-25T18:07:20.781Z,6.93
2019-02-25T18:12:25.688Z,6.97
2019-02-25T18:17:29.138Z,6.23
2019-02-25T18:22:33.016Z,7.50
2019-02-25T18:27:37.451Z,7.50
2019-02-25T18:32:42.034Z,6.23
2019-02-25T18:37:45.643Z,8.63
2019-02-25T18:42:49.711Z,7.17
2019-02-25T18:47:53.264Z,9.87
2019-02-25T18:52:58.976Z,9.37
2019-02-25T18:58:02.276Z,9.47
2019-02-25T19:03:06.775Z,7.60
2019-02-25T19:08:19.345Z,8.17
2019-02-25T19:13:23.347Z,8.47
2019-02-25T19:18:26.950Z,8.93
2019-02-25T19:23:31.254Z,8.50
2019-02-25T19:28:35.303Z,7.20
2019-02-25T19:33:38.597Z,6.33
2019-02-25T19:38:44.135Z,6.87
2019-02-25T19:43:48.624Z,7.20
2019-02-25T19:48:53.720Z,8.77
2019-02-25T19:53:57.189Z,9.57
2019-02-25T19:59:02.622Z,7.80
2019-02-25T20:04:07.056Z,9.07
2019-02-25T20:09:11.147Z,9.70
2019-02-25T20:14:16.803Z,8.43
2019-02-25T20:19:19.509Z,8.63
2019-02-25T20:24:23.807Z,8.20
2019-02-25T20:29:28.046Z,8.77
2019-02-25T20:34:32.116Z,8.47
2019-02-25T20:39:36.006Z,8.63
2019-02-25T20:44:40.567Z,9.00
2019-02-25T20:49:47.401Z,8.60
2019-02-25T20:54:49.575Z,8.07
2019-02-25T20:59:53.732Z,7.80
2019-02-25T21:04:58.228Z,8.43
2019-02-25T21:10:03.992Z,7.57
2019-02-25T21:15:12.125Z,7.00
2019-02-25T21:20:16.617Z,6.83
2019-02-25T21:25:24.503Z,7.00
2019-02-25T21:30:24.905Z,7.43
2019-02-25T21:35:30.189Z,7.87
2019-02-25T21:40:33.219Z,7.57
2019-02-25T21:45:36.503Z,7.30
2019-02-25T21:50:40.924Z,8.67
2019-02-25T21:55:45.062Z,7.97
2019-02-25T22:00:48.588Z,8.20
2019-02-25T22:05:53.951Z,7.63
2019-02-25T22:10:59.584Z,7.70
2019-02-25T22:16:03.535Z,7.03
2019-02-25T22:21:09.196Z,7.43
2019-02-25T22:26:12.427Z,7.60
2019-02-25T22:31:18.075Z,7.33
2019-02-25T22:36:21.098Z,7.33
2019-02-25T22:41:25.415Z,7.60
2019-02-25T22:46:32.131Z,7.13
2019-02-25T22:51:35.826Z,8.73
2019-02-25T22:56:40.439Z,6.77
2019-02-25T23:01:44.041Z,7.37
2019-02-25T23:06:49.001Z,7.73
2019-02-25T23:11:53.219Z,7.90
2019-02-25T23:16:59.807Z,7.00
2019-02-25T23:22:02.709Z,7.30
2019-02-25T23:27:06.302Z,7.40
2019-02-25T23:32:09.584Z,7.40
2019-02-25T23:37:14.798Z,7.33
2019-02-25T23:42:18.161Z,7.10
2019-02-25T23:47:24.967Z,6.40
2019-02-25T23:52:28.087Z,6.63
2019-02-25T23:57:32.786Z,7.17
